Time;durP1;ratioP1;P1;durP2;ratioP2;P2;SDS_P1;SDS_P2;PMS_P1;PMS_P2;Temp;Humidity;BMP_temperature;BMP_pressure;BME280_temperature;BME280_humidity;BME280_pressure;Samples;Min_cycle;Max_cycle;Signal;HPM_P1;HPM_P2
2021/05/06 00:32:59;;;;;;;14.70;7.35;;;;;;;14.19;75.85;99811.13;4969920;28;20053;-68
2021/05/06 00:35:26;;;;;;;11.57;7.85;;;;;;;14.35;75.41;99805.22;4969131;28;20068;-69
2021/05/06 00:38:08;;;;;;;11.43;6.53;;;;;;;14.39;75.18;99808.75;4937801;28;20045;-69
2021/05/06 00:46:28;;;;;;;12.57;6.93;;;;;;;14.23;75.94;99820.66;4950257;29;20167;-69
2021/05/06 01:04:16;;;;;;;12.10;7.30;;;;;;;14.88;73.21;99787.59;4969630;28;20513;-72
2021/05/06 01:09:18;;;;;;;13.07;7.55;;;;;;;14.84;72.06;99770.22;4955177;28;20062;-68
2021/05/06 01:11:52;;;;;;;12.52;7.40;;;;;;;14.76;72.76;99803.09;4969952;28;20432;-68
2021/05/06 01:14:18;;;;;;;14.38;7.55;;;;;;;14.71;73.78;99822.09;4969689;28;20074;-74
2021/05/06 01:16:43;;;;;;;12.00;7.47;;;;;;;14.26;75.16;99818.13;4953995;28;20070;-68
2021/05/06 01:19:08;;;;;;;10.98;7.10;;;;;;;14.29;75.70;99820.75;4969638;28;20489;-71
2021/05/06 01:21:34;;;;;;;11.35;8.02;;;;;;;14.43;75.14;99830.41;5010205;28;20045;-69
2021/05/06 01:24:01;;;;;;;12.40;7.80;;;;;;;14.13;76.37;99824.91;5011527;28;20033;-71
2021/05/06 01:29:05;;;;;;;13.05;7.75;;;;;;;14.17;76.29;99838.81;4992015;28;20092;-69
2021/05/06 01:31:34;;;;;;;12.55;7.60;;;;;;;14.05;76.98;99835.19;4991309;28;20117;-72
2021/05/06 01:34:17;;;;;;;15.68;8.80;;;;;;;14.25;76.16;99844.94;4991487;28;20026;-69
2021/05/06 01:37:00;;;;;;;13.52;8.10;;;;;;;14.18;76.17;99845.72;4991645;28;20030;-75
2021/05/06 01:49:47;;;;;;;13.27;8.00;;;;;;;14.31;76.49;99863.19;5011452;28;20403;-67
2021/05/06 02:00:13;;;;;;;12.13;7.15;;;;;;;14.69;74.87;99864.50;5011141;28;20022;-68
2021/05/06 02:02:39;;;;;;;12.52;7.38;;;;;;;14.55;75.09;99874.72;5011020;28;20120;-68
2021/05/06 02:05:05;;;;;;;9.98;7.05;;;;;;;14.27;76.15;99871.81;5008808;28;20117;-66
2021/05/06 02:07:32;;;;;;;11.27;6.90;;;;;;;14.31;76.09;99873.56;5005534;28;20113;-68
2021/05/06 02:09:57;;;;;;;11.30;6.78;;;;;;;14.17;75.81;99881.19;4991607;28;20026;-68
2021/05/06 02:12:22;;;;;;;11.00;6.35;;;;;;;13.66;78.15;99883.09;4991366;28;20551;-68
2021/05/06 02:17:38;;;;;;;12.27;6.25;;;;;;;13.63;77.74;99883.03;4972677;28;20053;-68
2021/05/06 02:20:05;;;;;;;10.68;6.05;;;;;;;13.25;79.35;99886.75;4973175;28;20449;-69
2021/05/06 02:22:31;;;;;;;10.75;6.65;;;;;;;13.16;79.63;99885.72;4973041;28;20070;-68
2021/05/06 02:24:56;;;;;;;10.48;5.90;;;;;;;13.01;79.30;99856.13;4973270;28;20437;-68
2021/05/06 02:27:21;;;;;;;13.15;5.63;;;;;;;13.16;79.43;99904.75;4973299;28;20085;-68
2021/05/06 02:29:47;;;;;;;11.70;5.72;;;;;;;12.75;80.15;99858.25;4973080;28;20074;-68
2021/05/06 02:32:14;;;;;;;9.77;5.45;;;;;;;13.00;79.71;99869.06;4972673;28;20489;-68
2021/05/06 02:34:40;;;;;;;8.95;5.47;;;;;;;13.35;79.11;99916.28;4973127;28;20043;-71
2021/05/06 02:37:06;;;;;;;9.25;5.30;;;;;;;13.25;78.63;99881.56;4972961;28;20035;-68
2021/05/06 02:39:31;;;;;;;8.27;5.65;;;;;;;13.67;77.98;99925.47;4972974;28;20069;-71
2021/05/06 02:41:57;;;;;;;11.02;5.63;;;;;;;13.79;76.51;99904.03;4972878;28;20442;-72
2021/05/06 02:44:22;;;;;;;9.13;5.60;;;;;;;13.65;77.12;99917.66;4972744;28;20089;-71
2021/05/06 02:46:48;;;;;;;10.40;5.60;;;;;;;13.72;76.81;99913.44;4972699;28;20070;-68
2021/05/06 02:49:13;;;;;;;8.30;5.47;;;;;;;13.86;75.69;99922.31;4972931;28;20100;-71
2021/05/06 02:51:47;;;;;;;9.65;5.65;;;;;;;13.96;76.17;99912.94;4972543;28;20075;-66
2021/05/06 02:54:13;;;;;;;10.65;6.20;;;;;;;13.87;77.26;99912.81;4963212;28;20512;-68
2021/05/06 02:57:07;;;;;;;10.70;6.63;;;;;;;13.96;76.88;99927.63;4994314;28;20062;-68
2021/05/06 03:04:52;;;;;;;9.88;6.45;;;;;;;14.11;75.71;99932.19;5013753;28;20049;-68
2021/05/06 03:07:22;;;;;;;7.88;5.63;;;;;;;14.21;75.02;99939.22;5013743;28;20022;-70
2021/05/06 03:13:05;;;;;;;9.02;6.20;;;;;;;14.26;74.31;99937.56;5011243;28;20396;-72
2021/05/06 03:23:26;;;;;;;11.38;6.65;;;;;;;14.36;73.30;99935.97;5011113;28;20045;-72
2021/05/06 03:25:52;;;;;;;8.63;6.22;;;;;;;14.50;72.97;99962.97;5010825;28;20412;-68
2021/05/06 03:28:37;;;;;;;8.57;5.90;;;;;;;14.61;72.21;99968.31;5010050;28;20530;-67
2021/05/06 03:44:40;;;;;;;10.32;6.15;;;;;;;14.52;71.60;99963.00;5010182;28;20062;-67
2021/05/06 04:17:10;;;;;;;8.18;6.18;;;;;;;14.10;76.22;100060.22;4990270;28;20049;-66
2021/05/06 04:25:36;;;;;;;11.50;7.00;;;;;;;14.31;76.36;100067.47;4990034;28;20100;-67
2021/05/06 04:28:02;;;;;;;12.18;6.53;;;;;;;14.47;74.74;100094.53;4990029;28;20758;-68
2021/05/06 04:35:52;;;;;;;10.90;5.97;;;;;;;14.72;74.20;100093.19;4984260;28;20075;-66
2021/05/06 04:38:21;;;;;;;10.27;6.28;;;;;;;14.80;73.72;100108.88;4990435;28;20550;-69
2021/05/06 04:41:02;;;;;;;12.25;5.90;;;;;;;14.75;75.14;100107.94;4990241;28;20516;-71
2021/05/06 05:04:44;;;;;;;9.57;5.65;;;;;;;14.92;73.56;100101.25;5012124;28;20388;-68
2021/05/06 05:07:17;;;;;;;9.25;5.72;;;;;;;14.91;74.30;100111.63;5011085;28;20411;-66
2021/05/06 05:28:04;;;;;;;11.23;5.68;;;;;;;15.58;71.89;100111.56;5011487;28;20088;-67
2021/05/06 05:30:31;;;;;;;11.77;5.88;;;;;;;15.82;71.54;100115.31;5011549;28;20545;-67
2021/05/06 05:32:57;;;;;;;10.00;6.03;;;;;;;15.76;71.70;100123.03;5011888;28;20034;-66
2021/05/06 05:38:09;;;;;;;10.30;5.47;;;;;;;15.81;72.24;100132.63;5011691;28;20037;-66
2021/05/06 05:40:47;;;;;;;10.38;5.88;;;;;;;15.84;72.05;100111.00;5011649;28;20057;-69
2021/05/06 05:43:47;;;;;;;11.50;6.43;;;;;;;16.15;71.33;100125.16;5011431;28;20061;-72
2021/05/06 05:56:42;;;;;;;9.45;5.70;;;;;;;16.72;69.95;100113.41;5013101;28;20582;-70
2021/05/06 05:59:08;;;;;;;109.82;10.65;;;;;;;16.75;69.45;100098.66;5013046;28;20058;-71
2021/05/06 06:01:33;;;;;;;12.05;5.70;;;;;;;17.07;69.60;100125.78;5012819;28;20144;-70
2021/05/06 06:03:59;;;;;;;7.80;4.82;;;;;;;17.05;68.95;100120.56;5012786;28;20160;-68
2021/05/06 06:06:25;;;;;;;9.15;4.82;;;;;;;16.86;68.42;100126.53;5012776;28;20041;-68
2021/05/06 06:08:51;;;;;;;12.18;5.65;;;;;;;16.68;68.30;100094.28;5012421;28;20061;-69
2021/05/06 06:11:16;;;;;;;8.48;5.18;;;;;;;16.84;68.29;100121.31;5012769;28;20034;-68
2021/05/06 06:13:44;;;;;;;8.65;4.60;;;;;;;17.02;68.81;100130.13;5012533;28;20476;-67
2021/05/06 06:16:19;;;;;;;9.45;4.88;;;;;;;17.18;67.58;100120.63;5012541;28;20038;-72
2021/05/06 06:18:48;;;;;;;12.90;5.00;;;;;;;17.23;67.66;100132.81;5012807;28;20033;-68
2021/05/06 06:21:27;;;;;;;9.13;5.10;;;;;;;17.13;67.23;100100.63;5012302;28;20491;-66
2021/05/06 06:23:53;;;;;;;7.95;4.47;;;;;;;17.46;66.04;100116.41;5012445;28;20260;-68
2021/05/06 06:26:22;;;;;;;8.77;4.18;;;;;;;17.74;66.84;100125.16;5012259;28;20467;-72
2021/05/06 06:28:51;;;;;;;7.73;4.07;;;;;;;17.81;61.25;100126.03;5013897;28;20030;-67
2021/05/06 06:31:20;;;;;;;6.63;4.20;;;;;;;17.82;63.66;100122.56;5014721;28;20022;-72
2021/05/06 06:33:46;;;;;;;13.13;4.40;;;;;;;17.88;62.96;100126.91;5014388;28;20269;-67
2021/05/06 06:36:13;;;;;;;8.35;4.50;;;;;;;18.07;63.41;100122.63;5014503;28;20037;-69
2021/05/06 06:38:39;;;;;;;6.57;4.18;;;;;;;18.16;63.38;100120.00;5014691;28;20034;-67
2021/05/06 06:41:08;;;;;;;6.43;3.92;;;;;;;18.37;62.37;100118.28;5013923;28;20061;-68
2021/05/06 06:43:35;;;;;;;16.83;4.63;;;;;;;18.41;60.54;100107.78;5014359;28;20034;-68
2021/05/06 06:46:20;;;;;;;8.70;3.83;;;;;;;18.49;59.47;100123.50;5051678;28;20150;-66
2021/05/06 06:48:46;;;;;;;9.00;3.25;;;;;;;18.63;55.82;100128.69;5051568;28;20056;-66
2021/05/06 06:51:12;;;;;;;6.28;3.22;;;;;;;18.69;56.65;100119.94;5051469;28;20384;-72
2021/05/06 06:53:37;;;;;;;5.22;2.72;;;;;;;18.85;53.25;100133.88;5051806;28;20037;-70
2021/05/06 06:56:04;;;;;;;10.55;3.67;;;;;;;18.90;55.89;100125.19;5051483;28;20072;-68
2021/05/06 06:58:30;;;;;;;8.35;3.60;;;;;;;19.08;56.40;100131.22;5051276;28;20037;-70
2021/05/06 07:00:57;;;;;;;6.25;3.10;;;;;;;19.17;51.95;100125.94;5051209;28;20047;-68
2021/05/06 07:03:23;;;;;;;6.70;3.00;;;;;;;19.26;53.50;100129.41;5049922;28;20029;-68
2021/05/06 07:05:49;;;;;;;6.13;3.50;;;;;;;19.26;54.09;100111.94;5051544;28;20552;-68
2021/05/06 07:08:18;;;;;;;7.82;3.55;;;;;;;19.62;57.27;100132.72;5034732;28;20037;-68
2021/05/06 07:10:45;;;;;;;5.30;2.90;;;;;;;19.58;50.18;100125.75;5051420;28;20503;-68
2021/05/06 07:13:12;;;;;;;5.13;3.33;;;;;;;19.67;51.22;100128.34;5050951;28;20057;-67
2021/05/06 07:15:38;;;;;;;8.13;3.15;;;;;;;19.70;54.04;100138.78;5051294;28;20521;-68
2021/05/06 07:18:07;;;;;;;5.90;3.20;;;;;;;19.72;52.51;100114.31;5020777;28;20523;-70
2021/05/06 07:20:33;;;;;;;6.55;3.47;;;;;;;19.88;51.97;100132.59;5029189;28;20033;-70
2021/05/06 07:22:58;;;;;;;4.43;3.05;;;;;;;19.93;50.51;100132.56;5013802;28;20034;-68
2021/05/06 07:25:23;;;;;;;10.32;3.00;;;;;;;19.73;49.64;100078.53;5013665;28;20396;-68
2021/05/06 07:27:49;;;;;;;8.98;3.45;;;;;;;20.00;48.68;100100.19;5013598;28;20488;-68
2021/05/06 07:30:15;;;;;;;5.80;2.90;;;;;;;20.22;50.88;100118.38;5013487;28;20444;-68
2021/05/06 07:32:41;;;;;;;6.97;2.90;;;;;;;20.33;49.06;100108.66;5013571;28;20132;-68
2021/05/06 07:35:07;;;;;;;9.73;3.00;;;;;;;20.59;48.15;100113.66;5013280;28;20033;-68
2021/05/06 07:37:33;;;;;;;6.90;3.42;;;;;;;20.40;45.01;100097.25;5013566;28;20424;-70
2021/05/06 07:39:58;;;;;;;6.88;3.83;;;;;;;20.46;47.98;100098.91;5013318;28;20022;-68
2021/05/06 07:42:23;;;;;;;5.45;2.63;;;;;;;20.76;45.71;100142.38;5012981;28;20473;-67
2021/05/06 07:44:49;;;;;;;7.82;2.60;;;;;;;20.97;45.67;100145.63;5013091;28;20037;-72
2021/05/06 07:47:14;;;;;;;6.78;2.90;;;;;;;20.98;48.98;100134.25;5013253;28;20037;-68
2021/05/06 07:49:41;;;;;;;7.10;2.85;;;;;;;20.94;45.98;100103.69;5011915;28;20026;-68
2021/05/06 07:52:07;;;;;;;5.80;3.05;;;;;;;21.16;45.31;100130.56;5013035;28;20030;-68
2021/05/06 07:54:33;;;;;;;5.22;2.78;;;;;;;21.14;46.92;100103.44;5012973;28;20030;-68
2021/05/06 07:56:59;;;;;;;8.70;2.67;;;;;;;21.20;45.16;100099.88;5012784;28;20041;-68
2021/05/06 07:59:26;;;;;;;14.25;3.40;;;;;;;21.47;45.08;100136.28;5011645;28;20030;-70
2021/05/06 08:01:52;;;;;;;9.75;3.33;;;;;;;21.49;44.42;100147.63;5012871;28;20030;-67
2021/05/06 08:04:20;;;;;;;11.13;3.10;;;;;;;21.56;47.06;100134.44;5013071;28;20511;-68
2021/05/06 08:06:48;;;;;;;5.57;2.87;;;;;;;21.54;43.36;100138.81;5012559;28;20040;-67
2021/05/06 08:09:13;;;;;;;7.72;2.92;;;;;;;21.58;43.24;100149.31;5012004;28;20269;-67
2021/05/06 08:11:39;;;;;;;6.18;2.88;;;;;;;21.48;43.75;100159.03;5012047;28;20021;-67
2021/05/06 08:14:04;;;;;;;7.57;2.90;;;;;;;21.73;43.50;100157.84;5011464;28;20041;-68
2021/05/06 08:16:30;;;;;;;6.60;2.88;;;;;;;21.91;44.79;100156.75;5011883;28;20057;-69
2021/05/06 08:18:55;;;;;;;5.03;2.67;;;;;;;21.98;42.48;100155.72;5009263;28;20026;-72
2021/05/06 08:21:21;;;;;;;8.75;3.08;;;;;;;22.19;41.66;100166.81;5012127;28;20473;-68
2021/05/06 08:23:46;;;;;;;5.13;2.67;;;;;;;22.14;41.05;100162.50;5011676;28;20029;-69
2021/05/06 08:26:12;;;;;;;5.68;2.60;;;;;;;22.28;42.81;100164.03;5011836;28;20488;-67
2021/05/06 08:28:37;;;;;;;8.93;2.92;;;;;;;22.43;43.08;100166.44;5012237;28;20029;-68
2021/05/06 08:31:03;;;;;;;5.57;2.75;;;;;;;22.50;40.91;100163.72;5012218;28;20547;-67
2021/05/06 08:33:28;;;;;;;6.00;2.50;;;;;;;22.55;40.56;100167.13;5012378;28;20029;-68
2021/05/06 08:35:54;;;;;;;17.92;3.35;;;;;;;22.65;41.28;100170.47;5012164;28;20029;-68
2021/05/06 08:38:19;;;;;;;7.65;2.40;;;;;;;22.76;38.32;100166.72;5012156;28;20037;-68
2021/05/06 08:40:46;;;;;;;11.43;2.55;;;;;;;22.96;37.06;100170.75;5011481;28;20022;-68
2021/05/06 08:43:12;;;;;;;3.97;2.33;;;;;;;22.83;37.81;100130.66;5009383;28;20104;-67
2021/05/06 08:45:47;;;;;;;4.30;2.08;;;;;;;22.67;37.44;100131.81;5011019;28;20025;-69
2021/05/06 08:48:16;;;;;;;5.47;2.65;;;;;;;22.96;39.90;100170.75;5008716;28;20028;-72
2021/05/06 08:50:41;;;;;;;5.82;2.85;;;;;;;22.97;37.93;100166.34;5010878;28;20026;-67
2021/05/06 08:53:08;;;;;;;16.25;3.13;;;;;;;23.14;38.46;100173.94;5009012;28;20064;-68
2021/05/06 08:55:34;;;;;;;9.45;2.65;;;;;;;23.27;38.17;100172.84;4992905;28;20646;-68
2021/05/06 08:58:00;;;;;;;9.35;2.50;;;;;;;23.11;39.70;100164.34;5011570;28;20112;-69
2021/05/06 09:00:25;;;;;;;8.35;2.75;;;;;;;23.05;41.01;100173.25;5011279;28;20042;-70
2021/05/06 09:02:51;;;;;;;5.30;2.75;;;;;;;23.09;40.34;100180.16;5011237;28;20075;-67
2021/05/06 09:05:17;;;;;;;6.15;2.90;;;;;;;23.11;40.63;100172.22;5010538;28;20022;-68
2021/05/06 09:07:46;;;;;;;29.58;4.70;;;;;;;23.54;39.59;100176.66;5011424;28;20018;-70
2021/05/06 09:10:33;;;;;;;5.45;3.03;;;;;;;23.53;38.93;100179.34;5011513;28;20026;-69
2021/05/06 09:12:58;;;;;;;8.35;2.63;;;;;;;23.35;39.21;100178.81;5010055;28;20033;-69
2021/05/06 09:15:24;;;;;;;7.00;3.00;;;;;;;23.53;37.64;100174.06;5011384;28;20044;-68
2021/05/06 09:17:50;;;;;;;5.13;2.50;;;;;;;23.55;37.14;100174.88;5011201;28;20034;-68
2021/05/06 09:20:24;;;;;;;8.95;2.60;;;;;;;23.83;36.45;100175.13;5006651;28;20092;-67
2021/05/06 09:22:55;;;;;;;7.68;2.67;;;;;;;24.08;35.49;100169.34;5006892;28;20018;-73
2021/05/06 09:25:32;;;;;;;7.57;2.58;;;;;;;24.13;36.37;100167.44;5008991;28;20415;-71
2021/05/06 09:28:05;;;;;;;6.32;2.55;;;;;;;24.39;36.60;100168.59;5013401;28;20049;-68
2021/05/06 09:30:31;;;;;;;5.50;2.75;;;;;;;23.95;38.12;100142.41;4994021;28;20033;-70
2021/05/06 09:33:16;;;;;;;5.43;2.63;;;;;;;23.94;38.84;100171.41;5014643;28;20064;-68
2021/05/06 09:35:41;;;;;;;4.95;2.30;;;;;;;23.98;35.58;100134.41;5014438;28;20040;-69
2021/05/06 09:38:25;;;;;;;13.88;2.60;;;;;;;24.01;34.69;100136.09;5010436;28;20046;-70
2021/05/06 09:40:51;;;;;;;3.08;2.22;;;;;;;24.11;34.59;100168.41;5014086;28;20030;-68
2021/05/06 09:43:26;;;;;;;11.52;2.50;;;;;;;24.48;34.60;100173.63;5014063;28;20037;-70
2021/05/06 09:45:51;;;;;;;4.22;2.42;;;;;;;24.36;34.13;100169.53;5013877;28;20046;-71
2021/05/06 09:48:19;;;;;;;5.75;2.72;;;;;;;24.70;33.57;100171.31;5014179;28;20539;-70
2021/05/06 09:51:07;;;;;;;6.10;2.30;;;;;;;24.94;33.50;100174.22;5014419;28;20128;-68
2021/05/06 09:53:33;;;;;;;5.07;2.72;;;;;;;24.73;34.57;100156.31;5010718;28;20097;-68
2021/05/06 09:56:01;;;;;;;4.20;2.30;;;;;;;23.98;33.36;100051.81;5011425;28;20042;-68
2021/05/06 09:58:31;;;;;;;6.15;2.40;;;;;;;24.98;34.34;100154.72;5011747;28;20128;-71
2021/05/06 10:00:56;;;;;;;;;;;;;;;25.28;33.30;100165.31;5009253;28;20033;-70
2021/05/06 10:03:31;;;;;;;3.95;2.22;;;;;;;25.22;32.58;100167.28;5010503;28;19964;-68
2021/05/06 10:05:56;;;;;;;7.25;2.92;;;;;;;24.79;32.93;100172.00;5008503;28;20526;-67
2021/05/06 10:08:33;;;;;;;4.50;2.25;;;;;;;24.71;32.81;100175.72;5010842;28;20034;-68
2021/05/06 10:11:12;;;;;;;4.65;2.75;;;;;;;24.87;33.42;100170.88;5011751;28;20512;-70
2021/05/06 10:13:41;;;;;;;3.40;2.30;;;;;;;25.16;33.40;100176.25;5010866;28;20092;-68
2021/05/06 10:16:11;;;;;;;7.20;2.38;;;;;;;25.50;33.83;100164.75;5012554;28;20119;-72
2021/05/06 10:18:42;;;;;;;6.38;2.30;;;;;;;25.52;32.93;100168.19;5012095;28;20113;-68
2021/05/06 10:21:09;;;;;;;8.98;2.45;;;;;;;25.06;32.91;100175.66;5015943;28;20050;-69
2021/05/06 10:23:56;;;;;;;6.38;2.63;;;;;;;25.33;32.76;100165.19;4972669;28;20049;-69
2021/05/06 10:26:24;;;;;;;5.72;2.78;;;;;;;25.27;33.62;100165.38;4972538;28;20045;-70
2021/05/06 10:28:52;;;;;;;6.68;2.22;;;;;;;25.51;32.56;100174.41;4972620;28;20071;-71
2021/05/06 10:31:18;;;;;;;3.90;2.40;;;;;;;25.67;32.22;100177.44;4987808;28;20563;-68
2021/05/06 10:33:44;;;;;;;3.83;2.40;;;;;;;25.68;33.54;100184.47;4991530;28;20126;-70
2021/05/06 10:36:11;;;;;;;4.38;2.40;;;;;;;25.61;33.06;100182.91;4990807;28;20045;-70
2021/05/06 10:38:41;;;;;;;5.07;2.45;;;;;;;25.45;33.33;100177.25;4990666;28;20121;-68
2021/05/06 10:41:34;;;;;;;;;;;;;;;25.76;33.68;100179.81;4991409;28;20562;-69
2021/05/06 10:44:08;;;;;;;5.43;2.17;;;;;;;25.51;31.03;100143.56;4989774;28;20004;-71
2021/05/06 10:47:01;;;;;;;5.65;2.20;;;;;;;26.03;30.66;100174.56;4991219;28;20030;-69
2021/05/06 10:49:29;;;;;;;5.28;2.35;;;;;;;26.42;30.66;100171.56;4991243;28;20069;-70
2021/05/06 10:52:02;;;;;;;4.30;2.47;;;;;;;26.35;33.81;100169.19;4971236;28;20034;-70
2021/05/06 10:54:44;;;;;;;9.25;2.63;;;;;;;26.71;30.37;100163.53;4998104;28;20060;-70
2021/05/06 10:57:10;;;;;;;6.40;2.40;;;;;;;26.86;29.02;100170.97;5012737;28;20022;-69
2021/05/06 10:59:43;;;;;;;2.45;2.25;;;;;;;27.04;31.06;100176.53;5012931;28;20108;-70
2021/05/06 11:02:10;;;;;;;5.28;2.30;;;;;;;26.75;29.79;100168.69;5012645;28;20026;-72
2021/05/06 11:04:39;;;;;;;3.15;2.20;;;;;;;26.57;29.41;100167.53;5012587;28;20476;-67
2021/05/06 11:07:23;;;;;;;9.80;2.58;;;;;;;26.45;29.96;100162.66;5013751;28;20053;-68
2021/05/06 11:09:51;;;;;;;7.03;2.30;;;;;;;26.48;31.16;100155.47;5012205;28;20072;-70
2021/05/06 11:12:17;;;;;;;5.55;2.20;;;;;;;26.40;29.53;100169.88;5013694;28;20037;-68
2021/05/06 11:15:04;;;;;;;5.45;2.38;;;;;;;26.76;30.58;100170.44;5013149;28;20061;-70
2021/05/06 11:17:32;;;;;;;4.22;2.10;;;;;;;26.84;29.88;100178.09;5012994;28;20484;-70
2021/05/06 11:20:02;;;;;;;4.72;2.08;;;;;;;26.79;29.49;100159.75;5011848;28;20038;-70
2021/05/06 11:22:47;;;;;;;10.65;2.30;;;;;;;27.02;30.56;100167.78;5011728;28;20030;-70
2021/05/06 11:25:28;;;;;;;3.88;2.20;;;;;;;27.00;29.45;100177.56;5012642;28;20045;-69
2021/05/06 11:28:01;;;;;;;4.97;1.90;;;;;;;27.01;31.43;100171.34;5013256;28;20034;-70
2021/05/06 11:30:46;;;;;;;8.35;2.22;;;;;;;26.72;28.80;100167.94;5010506;28;20018;-70
2021/05/06 11:33:35;;;;;;;4.90;1.80;;;;;;;27.28;31.43;100165.03;5013186;28;20073;-70
2021/05/06 11:36:28;;;;;;;4.22;2.05;;;;;;;27.09;28.42;100169.25;5011769;28;20034;-70
2021/05/06 11:38:54;;;;;;;4.13;2.00;;;;;;;27.03;27.93;100169.50;4974929;28;20045;-70
2021/05/06 11:41:28;;;;;;;4.18;2.00;;;;;;;27.34;28.86;100155.09;4991151;28;20177;-70
2021/05/06 11:43:57;;;;;;;7.47;2.53;;;;;;;27.48;28.49;100158.13;4987873;28;20441;-70
2021/05/06 11:46:24;;;;;;;4.53;2.10;;;;;;;27.24;30.04;100134.25;4972045;28;20424;-70
2021/05/06 11:48:52;;;;;;;7.75;4.30;;;;;;;27.33;27.59;100174.56;4971024;28;20486;-70
2021/05/06 11:51:33;;;;;;;4.45;2.17;;;;;;;27.31;27.82;100173.78;4971828;28;20034;-70
2021/05/06 11:54:16;;;;;;;3.95;2.28;;;;;;;27.71;28.27;100164.31;4986184;28;20034;-70
2021/05/06 11:56:59;;;;;;;9.30;2.40;;;;;;;27.66;31.56;100131.81;4990707;28;20046;-70
2021/05/06 11:59:28;;;;;;;17.35;3.63;;;;;;;27.65;30.88;100161.91;4991014;28;20112;-70
2021/05/06 12:02:13;;;;;;;5.75;2.30;;;;;;;27.70;33.00;100157.28;4971463;28;20039;-68
2021/05/06 12:04:58;;;;;;;4.57;2.40;;;;;;;28.12;31.25;100159.19;4971437;28;20078;-69
2021/05/06 12:07:24;;;;;;;4.43;2.33;;;;;;;27.88;30.36;100118.56;4971689;28;20077;-68
2021/05/06 12:09:50;;;;;;;6.55;2.40;;;;;;;27.42;30.60;100163.69;4971242;28;20050;-68
2021/05/06 12:12:23;;;;;;;7.30;2.50;;;;;;;27.31;30.58;100160.53;4970217;28;20101;-68
2021/05/06 12:14:49;;;;;;;3.80;2.17;;;;;;;27.25;30.39;100162.50;4951806;28;20047;-74
2021/05/06 12:17:19;;;;;;;4.18;2.40;;;;;;;26.94;31.39;100166.28;4952220;29;20047;-70
2021/05/06 12:19:47;;;;;;;4.07;2.42;;;;;;;26.95;31.40;100167.13;4935972;29;20051;-68
2021/05/06 12:22:14;;;;;;;5.03;2.70;;;;;;;26.64;30.53;100126.69;4952229;29;20043;-68
2021/05/06 12:24:41;;;;;;;7.00;2.58;;;;;;;26.78;32.73;100168.59;4951906;29;20486;-72
2021/05/06 12:27:27;;;;;;;6.57;2.10;;;;;;;26.92;31.66;100168.09;4966133;28;20531;-73
2021/05/06 12:29:55;;;;;;;3.55;2.10;;;;;;;26.91;29.84;100171.66;4951932;29;20184;-68
2021/05/06 12:32:22;;;;;;;3.70;2.30;;;;;;;27.24;30.95;100160.75;4960094;28;20520;-69
2021/05/06 12:34:48;;;;;;;4.45;2.10;;;;;;;26.94;30.44;100160.09;5010071;28;20180;-68
2021/05/06 12:37:15;;;;;;;5.25;1.98;;;;;;;26.80;30.31;100150.00;5012442;28;20547;-68
2021/05/06 12:40:00;;;;;;;4.13;2.20;;;;;;;26.96;32.54;100160.91;5009905;28;20038;-68
2021/05/06 12:42:32;;;;;;;6.00;2.00;;;;;;;27.03;30.15;100121.81;5009945;28;20116;-68
2021/05/06 12:44:59;;;;;;;3.70;1.90;;;;;;;27.58;30.60;100148.91;5010062;28;20064;-68
2021/05/06 12:47:30;;;;;;;2.80;1.90;;;;;;;27.74;29.21;100151.81;5009782;28;20034;-67
2021/05/06 12:50:26;;;;;;;4.20;1.92;;;;;;;27.86;29.06;100153.09;4989985;28;20039;-68
2021/05/06 12:53:18;;;;;;;3.80;1.88;;;;;;;28.14;28.59;100145.84;4990042;28;20046;-68
2021/05/06 12:55:45;;;;;;;7.15;2.47;;;;;;;28.57;27.34;100134.28;4932190;29;20506;-69
2021/05/06 12:58:15;;;;;;;8.40;2.60;;;;;;;28.75;27.22;100136.22;4932337;29;20044;-68
2021/05/06 13:00:53;;;;;;;6.07;2.40;;;;;;;28.58;26.66;100095.28;4932301;29;20434;-68
2021/05/06 13:03:28;;;;;;;6.65;2.42;;;;;;;28.57;26.73;100114.81;4932604;29;20470;-69
2021/05/06 13:05:54;;;;;;;7.20;2.10;;;;;;;28.84;27.00;100130.50;4932197;29;20118;-71
2021/05/06 13:08:34;;;;;;;7.53;2.78;;;;;;;29.03;25.90;100127.88;4932214;29;20042;-68
2021/05/06 13:11:04;;;;;;;8.45;2.38;;;;;;;28.49;26.83;100131.09;4941879;29;20050;-69
2021/05/06 13:13:42;;;;;;;5.80;2.88;;;;;;;28.59;27.65;100126.25;4951245;29;20461;-68
2021/05/06 13:16:09;;;;;;;4.72;2.10;;;;;;;28.33;26.83;100114.09;4951250;28;20046;-68
2021/05/06 13:18:36;;;;;;;9.32;3.05;;;;;;;28.35;27.45;100118.41;4951333;29;20032;-70
2021/05/06 13:21:22;;;;;;;8.68;2.85;;;;;;;28.12;27.56;100114.06;4941952;29;20469;-71
2021/05/06 13:23:55;;;;;;;9.35;3.45;;;;;;;28.22;27.84;100117.19;4936901;29;20035;-68
2021/05/06 13:26:38;;;;;;;8.57;2.90;;;;;;;27.95;28.97;100112.06;4948858;29;20035;-68
2021/05/06 13:29:18;;;;;;;6.60;2.47;;;;;;;28.11;27.76;100111.47;4934577;29;20412;-71
2021/05/06 13:31:48;;;;;;;8.13;2.33;;;;;;;27.95;29.17;100112.06;4956619;28;20465;-71
2021/05/06 13:34:16;;;;;;;7.18;2.10;;;;;;;28.25;29.22;100106.44;5027301;28;20030;-70
2021/05/06 13:37:03;;;;;;;4.18;2.17;;;;;;;28.35;28.08;100118.41;5027503;28;20034;-72
2021/05/06 13:39:29;;;;;;;5.05;2.65;;;;;;;28.58;29.76;100109.41;5027800;28;20038;-69
2021/05/06 13:41:55;;;;;;;6.03;2.28;;;;;;;28.66;28.82;100110.88;5028048;28;20037;-69
2021/05/06 13:44:26;;;;;;;6.75;2.25;;;;;;;28.58;27.98;100109.41;5028068;28;20507;-69
2021/05/06 13:46:54;;;;;;;5.40;2.30;;;;;;;28.47;28.26;100100.22;5028023;28;20065;-70
2021/05/06 13:49:30;;;;;;;6.38;2.47;;;;;;;28.40;27.68;100112.91;5028010;28;20033;-70
2021/05/06 13:51:57;;;;;;;9.35;2.08;;;;;;;28.44;28.33;100122.47;5028486;28;20033;-73
2021/05/06 13:54:25;;;;;;;8.68;2.33;;;;;;;28.37;28.67;100074.03;5028015;28;20026;-71
2021/05/06 13:56:51;;;;;;;5.97;2.22;;;;;;;28.62;26.44;100104.84;5028398;28;20041;-68
2021/05/06 13:59:16;;;;;;;7.63;2.40;;;;;;;28.41;28.98;100109.28;5015586;28;20050;-69
2021/05/06 14:01:42;;;;;;;7.03;2.50;;;;;;;28.48;29.47;100108.09;5010600;28;20096;-71
2021/05/06 14:04:08;;;;;;;6.65;2.88;;;;;;;28.53;28.25;100110.56;5011273;28;20026;-70
2021/05/06 14:06:34;;;;;;;11.48;2.67;;;;;;;28.63;27.38;100114.53;5010752;28;20455;-72
2021/05/06 14:09:00;;;;;;;6.95;2.33;;;;;;;28.54;27.79;100075.97;5010749;28;20025;-73
2021/05/06 14:11:26;;;;;;;7.32;2.38;;;;;;;28.85;27.72;100106.50;5010742;28;20022;-71
2021/05/06 14:13:56;;;;;;;12.82;3.00;;;;;;;28.72;28.18;100111.53;5014591;28;20052;-72
2021/05/06 14:16:22;;;;;;;10.93;2.88;;;;;;;28.71;25.72;100114.22;5013996;28;20557;-71
2021/05/06 14:19:08;;;;;;;7.43;2.58;;;;;;;29.02;28.56;100113.72;5013858;28;20037;-70
2021/05/06 14:21:38;;;;;;;5.82;2.30;;;;;;;29.15;26.83;100113.16;5017650;28;20126;-70
2021/05/06 14:24:04;;;;;;;6.00;3.03;;;;;;;29.00;26.91;100085.50;5012155;28;20508;-73
2021/05/06 14:29:15;;;;;;;8.60;2.42;;;;;;;29.40;26.49;100112.91;5020862;28;20037;-69
2021/05/06 14:31:41;;;;;;;7.40;2.63;;;;;;;29.61;26.41;100128.75;5019836;28;21245;-73
2021/05/06 14:34:06;;;;;;;6.28;2.40;;;;;;;29.39;25.93;100124.47;5025028;28;20187;-71
2021/05/06 14:36:37;;;;;;;5.32;2.22;;;;;;;28.88;26.20;100122.31;5030829;28;20120;-72
2021/05/06 14:39:06;;;;;;;9.45;5.32;;;;;;;28.51;27.67;100126.56;5030086;28;20038;-72
2021/05/06 14:41:31;;;;;;;10.88;6.13;;;;;;;28.30;27.25;100131.00;5030760;28;20091;-73
2021/05/06 14:43:57;;;;;;;6.82;3.08;;;;;;;28.48;27.05;100126.69;5030609;28;20033;-69
2021/05/06 14:46:24;;;;;;;5.75;2.35;;;;;;;28.68;27.02;100093.13;5030331;28;20037;-73
2021/05/06 14:48:50;;;;;;;4.57;2.25;;;;;;;29.00;27.90;100131.53;5030420;28;20053;-72
2021/05/06 14:51:35;;;;;;;8.77;2.17;;;;;;;29.18;27.03;100132.47;5003237;28;20124;-67
2021/05/06 14:54:02;;;;;;;5.53;2.22;;;;;;;29.18;27.03;100113.00;5000498;28;20078;-69
2021/05/06 14:56:30;;;;;;;7.78;2.45;;;;;;;29.10;26.47;100124.00;4988609;28;20053;-69
2021/05/06 14:58:55;;;;;;;4.82;2.15;;;;;;;28.83;26.89;100099.53;4994034;28;20065;-70
2021/05/06 15:01:21;;;;;;;5.15;2.10;;;;;;;28.65;26.39;100085.25;4993741;28;20108;-72
2021/05/06 15:04:06;;;;;;;5.65;2.20;;;;;;;28.96;27.00;100135.28;5009437;28;20217;-70